Time;durP1;ratioP1;P1;durP2;ratioP2;P2;SDS_P1;SDS_P2;PMS_P1;PMS_P2;Temp;Humidity;BMP_temperature;BMP_pressure;BME280_temperature;BME280_humidity;BME280_pressure;Samples;Min_cycle;Max_cycle;Signal;HPM_P1;HPM_P2
2021/08/03 00:02:20;;;;;;;4.93;2.03;;;17.20;90.20;;;;;;4995937;28;20045;-91
2021/08/03 00:04:49;;;;;;;5.15;1.80;;;17.10;90.40;;;;;;5007193;28;20029;-90
2021/08/03 00:07:21;;;;;;;5.40;1.52;;;17.10;90.70;;;;;;5018171;28;20409;-90
2021/08/03 00:09:47;;;;;;;2.58;1.35;;;17.10;90.40;;;;;;5031886;28;20026;-90
2021/08/03 00:12:17;;;;;;;2.92;1.58;;;17.00;90.60;;;;;;5012307;28;20022;-91
2021/08/03 00:14:47;;;;;;;2.80;1.35;;;17.00;90.60;;;;;;5020257;28;20470;-91
2021/08/03 00:17:16;;;;;;;2.92;1.60;;;17.00;90.70;;;;;;5015167;28;20064;-90
2021/08/03 00:19:42;;;;;;;2.95;1.30;;;17.00;90.70;;;;;;5002959;28;20075;-91
2021/08/03 00:22:08;;;;;;;3.40;1.60;;;17.00;90.80;;;;;;5035037;28;20144;-91
2021/08/03 00:24:36;;;;;;;2.38;1.55;;;17.00;90.80;;;;;;5021235;28;20017;-91
2021/08/03 00:27:03;;;;;;;4.97;1.88;;;17.00;90.70;;;;;;5034057;28;20033;-91
2021/08/03 00:29:29;;;;;;;2.75;1.50;;;17.00;90.80;;;;;;5035038;28;20010;-91
2021/08/03 00:31:56;;;;;;;2.55;1.20;;;17.00;90.90;;;;;;5018747;28;20036;-91
2021/08/03 00:34:22;;;;;;;4.32;1.27;;;16.90;90.90;;;;;;5053116;28;20021;-91
2021/08/03 00:36:47;;;;;;;2.47;1.27;;;16.90;91.00;;;;;;4999004;28;20032;-91
2021/08/03 00:39:14;;;;;;;2.50;1.08;;;16.90;90.90;;;;;;5015448;28;20402;-91
2021/08/03 00:41:48;;;;;;;3.78;1.20;;;16.90;90.90;;;;;;5004973;28;20374;-91
2021/08/03 00:44:14;;;;;;;3.25;1.58;;;16.90;90.90;;;;;;5022034;28;20025;-91
2021/08/03 00:46:42;;;;;;;2.67;1.08;;;16.80;91.10;;;;;;5012638;28;20033;-91
2021/08/03 00:49:17;;;;;;;3.63;1.40;;;16.90;91.10;;;;;;5044818;28;20475;-91
2021/08/03 00:51:42;;;;;;;3.10;1.40;;;16.80;91.10;;;;;;5018929;28;20048;-91
2021/08/03 00:54:08;;;;;;;3.42;1.52;;;16.80;91.10;;;;;;5015968;28;20483;-91
2021/08/03 00:56:34;;;;;;;2.03;1.17;;;16.80;91.10;;;;;;4999258;28;20037;-91
2021/08/03 00:59:00;;;;;;;3.33;1.83;;;16.80;91.20;;;;;;4999128;28;20056;-92
2021/08/03 01:01:25;;;;;;;3.53;1.50;;;16.80;91.30;;;;;;5030103;28;20025;-91
2021/08/03 01:04:14;;;;;;;2.58;1.63;;;16.80;91.60;;;;;;4998998;28;20014;-91
2021/08/03 01:06:51;;;;;;;3.63;1.40;;;16.80;91.40;;;;;;5014699;28;20113;-91
2021/08/03 01:09:32;;;;;;;4.05;1.23;;;16.80;91.40;;;;;;5047212;28;20026;-91
2021/08/03 01:12:26;;;;;;;2.17;1.40;;;16.70;91.40;;;;;;5028848;28;20029;-91
2021/08/03 01:15:08;;;;;;;3.53;1.80;;;16.70;91.40;;;;;;5024604;28;20032;-92
2021/08/03 01:17:43;;;;;;;3.25;1.27;;;16.70;91.50;;;;;;5034914;28;20053;-91
2021/08/03 01:20:25;;;;;;;2.60;1.40;;;16.70;91.80;;;;;;5051216;28;20029;-91
2021/08/03 01:23:22;;;;;;;2.95;1.30;;;16.70;91.60;;;;;;5009786;28;20018;-91
2021/08/03 01:26:12;;;;;;;4.00;1.95;;;16.70;91.40;;;;;;5010674;28;20052;-91
2021/08/03 01:28:51;;;;;;;6.28;2.00;;;16.60;91.40;;;;;;5032711;28;20033;-92
2021/08/03 01:31:25;;;;;;;3.00;1.42;;;16.60;91.50;;;;;;5014740;28;20021;-91
2021/08/03 01:33:58;;;;;;;3.42;1.33;;;16.50;91.50;;;;;;5014243;28;20471;-91
2021/08/03 01:36:25;;;;;;;6.20;1.98;;;16.50;91.60;;;;;;5014056;28;20039;-92
2021/08/03 01:38:52;;;;;;;2.75;1.38;;;16.50;92.00;;;;;;5015716;28;20029;-91
2021/08/03 01:41:20;;;;;;;4.05;1.50;;;16.50;91.80;;;;;;4998294;28;20117;-91
2021/08/03 01:43:47;;;;;;;2.90;1.33;;;16.50;91.80;;;;;;4987833;28;20022;-91
2021/08/03 01:46:16;;;;;;;4.78;1.48;;;16.50;91.80;;;;;;4999391;28;20113;-91
2021/08/03 01:48:45;;;;;;;5.35;1.48;;;16.50;91.90;;;;;;5001259;28;20079;-92
2021/08/03 01:51:10;;;;;;;1.90;1.40;;;16.50;91.90;;;;;;5001419;28;20479;-91
2021/08/03 01:53:38;;;;;;;4.07;1.70;;;16.40;91.80;;;;;;4985402;28;20022;-91
2021/08/03 01:56:04;;;;;;;3.42;1.52;;;16.50;91.90;;;;;;5005565;28;20022;-91
2021/08/03 01:58:31;;;;;;;2.58;1.38;;;16.40;91.90;;;;;;5015946;28;20025;-91
2021/08/03 02:00:57;;;;;;;4.47;1.55;;;16.40;91.90;;;;;;5001460;28;20084;-91
2021/08/03 02:03:25;;;;;;;3.55;1.60;;;16.40;91.90;;;;;;5017788;28;20017;-91
2021/08/03 02:05:52;;;;;;;2.55;1.27;;;16.40;91.90;;;;;;5017569;28;20033;-91
2021/08/03 02:08:19;;;;;;;3.60;1.48;;;16.40;92.00;;;;;;5001801;28;20128;-91
2021/08/03 02:10:46;;;;;;;1.92;1.15;;;16.30;91.90;;;;;;4985353;28;20029;-91
2021/08/03 02:13:15;;;;;;;2.75;1.23;;;16.30;91.90;;;;;;4992749;28;20433;-91
2021/08/03 02:15:41;;;;;;;3.35;1.40;;;16.30;91.90;;;;;;4990173;28;20419;-92
2021/08/03 02:18:07;;;;;;;3.55;1.33;;;16.30;92.00;;;;;;4998159;28;20057;-92
2021/08/03 02:20:32;;;;;;;4.28;1.40;;;16.30;92.10;;;;;;4992077;28;20052;-91
2021/08/03 02:22:58;;;;;;;2.40;1.25;;;16.30;92.10;;;;;;5017470;28;20036;-92
2021/08/03 02:25:24;;;;;;;2.60;1.08;;;16.30;92.20;;;;;;5014361;28;20505;-91
2021/08/03 02:27:51;;;;;;;2.35;1.40;;;16.30;92.30;;;;;;4997736;28;20128;-91
2021/08/03 02:30:17;;;;;;;4.03;1.60;;;16.30;92.30;;;;;;5000404;28;20026;-91
2021/08/03 02:32:46;;;;;;;1.88;1.23;;;16.20;92.30;;;;;;5001130;28;20026;-92
2021/08/03 02:35:17;;;;;;;3.38;1.30;;;16.20;92.40;;;;;;5019873;28;20152;-91
2021/08/03 02:37:58;;;;;;;2.78;1.23;;;16.20;92.40;;;;;;5033720;28;20498;-91
2021/08/03 02:40:24;;;;;;;3.50;1.70;;;16.20;92.40;;;;;;5034891;28;20014;-91
2021/08/03 02:42:54;;;;;;;2.45;1.20;;;16.20;92.40;;;;;;5033961;28;20017;-92
2021/08/03 02:45:20;;;;;;;3.10;1.50;;;16.20;92.40;;;;;;5014750;28;20382;-91
2021/08/03 02:47:52;;;;;;;3.30;1.60;;;16.20;92.40;;;;;;5006011;28;20028;-92
2021/08/03 02:50:23;;;;;;;4.15;1.70;;;16.20;92.50;;;;;;5033842;28;20033;-92
2021/08/03 02:52:53;;;;;;;3.97;1.70;;;16.20;92.50;;;;;;5033504;28;20013;-91
2021/08/03 02:55:25;;;;;;;3.47;1.40;;;16.20;92.60;;;;;;5033298;28;20031;-91
2021/08/03 02:58:05;;;;;;;3.00;1.67;;;16.20;92.70;;;;;;5025722;28;20037;-92
2021/08/03 03:00:58;;;;;;;4.82;1.95;;;16.20;92.70;;;;;;5013790;28;20018;-92
2021/08/03 03:03:25;;;;;;;4.88;1.60;;;16.20;92.80;;;;;;5024681;28;20374;-91
2021/08/03 03:05:57;;;;;;;3.85;1.50;;;16.10;92.80;;;;;;5019284;28;20035;-91
2021/08/03 03:08:27;;;;;;;3.00;1.63;;;16.10;92.90;;;;;;5033176;28;20116;-91
2021/08/03 03:10:55;;;;;;;3.03;1.52;;;16.10;92.90;;;;;;5019140;28;20077;-91
2021/08/03 03:13:34;;;;;;;3.00;1.75;;;16.10;93.00;;;;;;5033035;28;20022;-91
2021/08/03 03:16:01;;;;;;;4.43;1.80;;;16.10;92.90;;;;;;5032963;28;20040;-92
2021/08/03 03:18:27;;;;;;;3.72;1.65;;;16.10;92.90;;;;;;5016423;28;20037;-90
2021/08/03 03:20:53;;;;;;;4.22;2.30;;;16.10;93.00;;;;;;5036038;28;20060;-91
2021/08/03 03:23:23;;;;;;;3.13;1.80;;;16.10;93.00;;;;;;5000189;28;20025;-91
2021/08/03 03:25:51;;;;;;;3.70;1.80;;;16.10;93.00;;;;;;5029069;28;20029;-91
2021/08/03 03:28:29;;;;;;;3.78;2.28;;;16.10;93.00;;;;;;5036195;28;20017;-91
2021/08/03 03:30:57;;;;;;;7.38;2.13;;;16.10;92.90;;;;;;5035971;28;20039;-91
2021/08/03 03:33:24;;;;;;;3.80;2.13;;;16.10;92.90;;;;;;5030687;28;20020;-91
2021/08/03 03:35:55;;;;;;;5.05;2.10;;;16.00;93.00;;;;;;5007795;28;20037;-92
2021/08/03 03:38:26;;;;;;;;;;;16.00;93.00;;;;;;5020224;28;20017;-91
2021/08/03 03:40:52;;;;;;;6.95;2.38;;;16.00;93.10;;;;;;5035933;28;19959;-91
2021/08/03 03:43:27;;;;;;;5.60;2.30;;;16.00;93.10;;;;;;5053399;28;20028;-92
2021/08/03 03:46:04;;;;;;;4.07;2.30;;;16.00;93.10;;;;;;5020030;28;20092;-92
2021/08/03 03:48:34;;;;;;;6.03;2.25;;;16.00;93.10;;;;;;5053871;28;20028;-92
2021/08/03 03:51:03;;;;;;;4.47;2.20;;;16.00;93.10;;;;;;5035979;28;20017;-92
2021/08/03 03:53:40;;;;;;;5.13;2.20;;;15.90;93.10;;;;;;5035606;28;20079;-91
2021/08/03 03:56:07;;;;;;;4.57;2.17;;;15.90;93.20;;;;;;5035712;28;20102;-91
2021/08/03 03:58:37;;;;;;;4.18;2.13;;;15.90;93.20;;;;;;5021340;28;20095;-91
2021/08/03 04:01:03;;;;;;;5.30;2.47;;;15.90;93.30;;;;;;5044275;28;20028;-91
2021/08/03 04:03:32;;;;;;;3.65;2.10;;;15.90;93.30;;;;;;5011911;28;20109;-91
2021/08/03 04:05:58;;;;;;;3.05;2.10;;;15.90;93.20;;;;;;5053137;28;20029;-91
2021/08/03 04:08:24;;;;;;;3.72;2.22;;;15.80;93.20;;;;;;5019072;28;20421;-92
2021/08/03 04:10:49;;;;;;;5.95;2.30;;;15.80;93.30;;;;;;5013700;28;20052;-91
2021/08/03 04:13:15;;;;;;;3.97;2.15;;;15.80;93.40;;;;;;4990926;28;20026;-91
2021/08/03 04:15:41;;;;;;;4.40;2.30;;;15.80;93.50;;;;;;5013077;28;20517;-91
2021/08/03 04:18:07;;;;;;;4.82;2.70;;;15.80;93.50;;;;;;5025123;28;20183;-91
2021/08/03 04:20:33;;;;;;;6.53;2.70;;;15.80;93.60;;;;;;5011154;23;20068;-86
2021/08/03 04:22:59;;;;;;;7.55;2.33;;;15.80;93.50;;;;;;4997426;28;20316;-85
2021/08/03 04:25:25;;;;;;;5.53;2.88;;;15.80;93.50;;;;;;4995036;28;20098;-86
2021/08/03 04:27:51;;;;;;;4.72;2.45;;;15.80;93.60;;;;;;4994841;28;20022;-85
2021/08/03 04:30:17;;;;;;;5.20;2.40;;;15.80;93.60;;;;;;4991569;28;20019;-86
2021/08/03 04:32:43;;;;;;;5.85;2.40;;;15.80;93.70;;;;;;4978682;28;20076;-86
2021/08/03 04:35:11;;;;;;;4.80;2.38;;;15.80;93.70;;;;;;4978145;28;20482;-86
2021/08/03 04:37:41;;;;;;;4.43;2.20;;;15.80;93.80;;;;;;4970846;28;20089;-85
2021/08/03 04:40:08;;;;;;;3.95;2.42;;;15.70;93.80;;;;;;4991331;28;20022;-86
2021/08/03 04:42:34;;;;;;;5.00;2.90;;;15.70;94.00;;;;;;4985964;28;20026;-86
2021/08/03 04:45:00;;;;;;;3.50;2.28;;;15.80;94.00;;;;;;4978779;28;20617;-85
2021/08/03 04:47:26;;;;;;;4.43;2.40;;;15.70;94.00;;;;;;4995162;28;20075;-85
2021/08/03 04:49:51;;;;;;;4.85;2.30;;;15.80;94.10;;;;;;4994646;28;20090;-85
2021/08/03 04:52:17;;;;;;;3.83;2.47;;;15.80;94.20;;;;;;4978506;28;20030;-86
2021/08/03 04:54:43;;;;;;;3.65;2.20;;;15.70;94.30;;;;;;4978631;28;20037;-86
2021/08/03 04:57:08;;;;;;;3.65;1.90;;;15.80;94.40;;;;;;4975207;28;20034;-85
2021/08/03 04:59:34;;;;;;;3.40;1.80;;;15.80;94.30;;;;;;4982398;28;20464;-86
2021/08/03 05:02:01;;;;;;;4.15;1.98;;;15.80;94.40;;;;;;4992017;28;21801;-85
2021/08/03 05:04:29;;;;;;;4.97;2.10;;;15.80;94.40;;;;;;4943476;28;20498;-86
2021/08/03 05:06:55;;;;;;;3.80;2.20;;;15.80;94.70;;;;;;4972252;28;20038;-86
2021/08/03 05:09:21;;;;;;;4.47;2.38;;;15.80;94.50;;;;;;4975076;28;20075;-86
2021/08/03 05:11:47;;;;;;;4.07;2.50;;;15.80;94.80;;;;;;4988035;28;20645;-85
2021/08/03 05:14:13;;;;;;;4.57;2.55;;;15.80;94.50;;;;;;4991943;28;20038;-86
2021/08/03 05:16:38;;;;;;;7.05;2.65;;;15.90;94.60;;;;;;4990023;28;20498;-86
2021/08/03 05:19:04;;;;;;;4.53;2.40;;;15.90;94.60;;;;;;4997939;28;20034;-86
2021/08/03 05:21:30;;;;;;;7.13;3.05;;;15.90;94.60;;;;;;4984160;28;20042;-86
2021/08/03 05:23:55;;;;;;;6.13;2.63;;;15.90;94.70;;;;;;4987113;28;20036;-86
2021/08/03 05:26:22;;;;;;;5.40;2.88;;;15.90;94.70;;;;;;4995592;28;20018;-85
2021/08/03 05:28:48;;;;;;;5.30;2.60;;;15.90;94.70;;;;;;4978999;28;20037;-85
2021/08/03 05:31:13;;;;;;;6.32;3.08;;;15.90;94.70;;;;;;4993650;28;20391;-86
2021/08/03 05:33:40;;;;;;;5.57;3.03;;;15.90;94.60;;;;;;4998030;28;20030;-86
2021/08/03 05:36:06;;;;;;;5.07;2.80;;;15.90;94.70;;;;;;4997835;28;20542;-86
2021/08/03 05:38:32;;;;;;;5.22;2.72;;;15.90;94.70;;;;;;4981664;28;20034;-86
2021/08/03 05:40:58;;;;;;;5.53;3.10;;;16.00;94.70;;;;;;4978481;28;20078;-85
2021/08/03 05:43:23;;;;;;;7.88;3.20;;;16.00;94.70;;;;;;4978361;28;20101;-85
2021/08/03 05:45:49;;;;;;;6.72;3.15;;;16.00;94.70;;;;;;4971598;28;20030;-85
2021/08/03 05:48:15;;;;;;;6.47;3.03;;;16.00;94.80;;;;;;4979847;28;20041;-86
2021/08/03 05:50:40;;;;;;;5.18;2.85;;;16.00;94.70;;;;;;5003018;28;20025;-85
2021/08/03 05:53:06;;;;;;;6.20;3.22;;;16.00;94.80;;;;;;4997625;28;20029;-86
2021/08/03 05:55:32;;;;;;;5.00;3.05;;;16.00;94.70;;;;;;4981271;28;20116;-86
2021/08/03 05:57:58;;;;;;;6.05;3.05;;;16.00;94.70;;;;;;4989499;28;20133;-86
2021/08/03 06:00:24;;;;;;;7.35;3.00;;;16.00;94.80;;;;;;4977379;28;20023;-85
2021/08/03 06:02:49;;;;;;;5.13;3.15;;;16.00;94.80;;;;;;4962131;28;20040;-86
2021/08/03 06:05:15;;;;;;;6.38;3.50;;;16.00;94.80;;;;;;4994316;28;20026;-85
2021/08/03 06:07:44;;;;;;;5.05;2.90;;;16.00;94.80;;;;;;4980944;28;20483;-86
2021/08/03 06:10:15;;;;;;;4.28;2.95;;;16.00;94.80;;;;;;4978450;28;20069;-85
2021/08/03 06:12:45;;;;;;;6.05;3.10;;;16.00;94.90;;;;;;4975101;28;20041;-85
2021/08/03 06:15:12;;;;;;;5.57;3.50;;;16.00;94.90;;;;;;5002199;28;20400;-87
2021/08/03 06:17:40;;;;;;;6.18;2.92;;;16.00;94.90;;;;;;5002901;28;20364;-85
2021/08/03 06:20:07;;;;;;;6.38;3.47;;;16.00;94.90;;;;;;4993498;28;20167;-87
2021/08/03 06:22:37;;;;;;;4.82;3.20;;;16.00;94.90;;;;;;4977840;28;20125;-85
2021/08/03 06:25:04;;;;;;;5.15;2.30;;;16.00;94.90;;;;;;4993645;28;20029;-86
2021/08/03 06:27:31;;;;;;;6.25;3.05;;;16.00;94.90;;;;;;5000918;28;20051;-86
2021/08/03 06:29:59;;;;;;;5.93;2.97;;;16.10;95.00;;;;;;4971266;28;20448;-86
2021/08/03 06:32:25;;;;;;;7.10;2.83;;;16.00;95.00;;;;;;4996982;28;20033;-85
2021/08/03 06:34:51;;;;;;;4.00;2.65;;;16.10;95.00;;;;;;4980582;28;20021;-85
2021/08/03 06:37:17;;;;;;;5.47;3.13;;;16.10;95.00;;;;;;4993712;28;20110;-85
2021/08/03 06:39:43;;;;;;;5.50;3.30;;;16.10;95.00;;;;;;4974701;28;20495;-86
2021/08/03 06:42:30;;;;;;;5.10;2.72;;;16.10;95.10;;;;;;4989741;28;20014;-86
2021/08/03 06:45:11;;;;;;;5.93;3.10;;;16.10;95.00;;;;;;4996468;28;20510;-86
2021/08/03 06:47:48;;;;;;;4.97;2.75;;;16.10;95.00;;;;;;4999033;28;20060;-85
2021/08/03 06:50:16;;;;;;;4.43;2.70;;;16.10;95.10;;;;;;5001436;28;20017;-85
2021/08/03 06:52:42;;;;;;;4.82;2.90;;;16.20;95.20;;;;;;5013023;28;20436;-86
2021/08/03 06:55:08;;;;;;;4.85;3.03;;;16.20;95.50;;;;;;4988884;28;20122;-85
2021/08/03 06:57:40;;;;;;;4.75;3.25;;;16.20;95.60;;;;;;4974575;28;20089;-85
2021/08/03 07:00:09;;;;;;;6.63;3.67;;;16.20;95.50;;;;;;5009098;28;20479;-85
2021/08/03 07:02:48;;;;;;;7.38;4.03;;;16.30;95.40;;;;;;5009132;28;20021;-86
2021/08/03 07:05:20;;;;;;;5.20;3.78;;;16.30;95.40;;;;;;4998776;28;20029;-85
2021/08/03 07:07:46;;;;;;;8.48;3.72;;;16.30;95.30;;;;;;4992972;28;20037;-85
2021/08/03 07:10:14;;;;;;;4.63;3.38;;;16.30;95.30;;;;;;4986219;28;20026;-85
2021/08/03 07:12:44;;;;;;;6.00;3.83;;;16.40;95.30;;;;;;5000839;28;20121;-85
2021/08/03 07:15:11;;;;;;;7.33;3.90;;;16.40;95.30;;;;;;5014395;28;20026;-85
2021/08/03 07:17:39;;;;;;;6.20;4.47;;;16.40;95.30;;;;;;4995590;28;20419;-84
2021/08/03 07:20:06;;;;;;;7.72;4.90;;;16.50;95.30;;;;;;5004115;28;20446;-85
2021/08/03 07:22:34;;;;;;;7.80;5.13;;;16.50;95.20;;;;;;4977480;28;20054;-85
2021/08/03 07:25:02;;;;;;;7.55;5.43;;;16.50;95.20;;;;;;4992831;28;20022;-85
2021/08/03 07:27:28;;;;;;;8.82;6.40;;;16.50;95.20;;;;;;4985942;28;20392;-87
2021/08/03 07:29:54;;;;;;;10.70;7.28;;;16.50;95.20;;;;;;4973336;28;20019;-90
2021/08/03 07:32:20;;;;;;;10.32;7.13;;;16.60;95.10;;;;;;4973280;28;20062;-91
2021/08/03 07:34:45;;;;;;;10.93;8.00;;;16.60;95.10;;;;;;4989769;28;20023;-85
2021/08/03 07:37:11;;;;;;;9.65;7.32;;;16.60;95.10;;;;;;4962039;28;20035;-86
2021/08/03 07:39:39;;;;;;;11.05;8.25;;;16.60;95.10;;;;;;5003738;28;20030;-86
2021/08/03 07:42:06;;;;;;;11.60;8.82;;;16.70;95.10;;;;;;4992155;28;20037;-86
2021/08/03 07:44:32;;;;;;;12.40;9.95;;;16.70;95.10;;;;;;4992246;28;20031;-87
2021/08/03 07:46:58;;;;;;;12.73;10.35;;;16.80;95.20;;;;;;5008423;28;20140;-85
2021/08/03 07:49:24;;;;;;;12.00;9.15;;;16.80;95.10;;;;;;4964452;28;20042;-86
2021/08/03 07:51:51;;;;;;;11.52;9.10;;;16.90;95.20;;;;;;4986527;28;20033;-85
2021/08/03 07:54:18;;;;;;;11.00;9.38;;;16.90;95.20;;;;;;4982432;28;20122;-85
2021/08/03 07:56:43;;;;;;;10.95;8.85;;;16.90;95.10;;;;;;4974895;28;20058;-85
2021/08/03 07:59:09;;;;;;;12.35;9.73;;;17.00;95.10;;;;;;5000844;28;20056;-85
2021/08/03 08:01:35;;;;;;;11.07;9.00;;;17.00;95.10;;;;;;4992216;28;20109;-85
2021/08/03 08:04:01;;;;;;;13.02;9.20;;;17.00;95.10;;;;;;5000003;28;20019;-85
2021/08/03 08:06:26;;;;;;;13.25;9.85;;;17.10;95.10;;;;;;4972635;28;20354;-85
2021/08/03 08:08:52;;;;;;;12.85;9.32;;;17.10;95.10;;;;;;4981235;28;20331;-85
2021/08/03 08:11:18;;;;;;;10.57;8.30;;;17.10;95.10;;;;;;4975040;28;20037;-85
2021/08/03 08:13:44;;;;;;;10.13;8.30;;;17.10;95.00;;;;;;4965748;28;20447;-85
2021/08/03 08:16:09;;;;;;;11.95;9.50;;;17.20;95.10;;;;;;4974993;28;20508;-85
2021/08/03 08:21:57;;;;;;;11.35;8.65;;;17.30;95.10;;;;;;4995659;28;20109;-85
2021/08/03 08:24:23;;;;;;;14.32;9.35;;;17.30;95.10;;;;;;4978532;28;20042;-85
2021/08/03 08:26:50;;;;;;;14.18;9.20;;;17.30;95.00;;;;;;4991724;28;20015;-86
2021/08/03 08:29:16;;;;;;;13.23;8.73;;;17.30;94.90;;;;;;4985233;28;20129;-86
2021/08/03 08:31:45;;;;;;;12.65;9.23;;;17.40;94.90;;;;;;4978806;28;20030;-85
2021/08/03 08:34:11;;;;;;;11.65;8.57;;;17.40;94.90;;;;;;4981312;28;20030;-85
2021/08/03 08:36:37;;;;;;;11.38;8.32;;;17.40;94.80;;;;;;4975302;28;20031;-85
2021/08/03 08:39:04;;;;;;;9.90;8.15;;;17.40;94.80;;;;;;4984908;28;20034;-85
2021/08/03 08:41:30;;;;;;;10.98;7.90;;;17.50;94.80;;;;;;5003270;28;20045;-85
2021/08/03 08:43:55;;;;;;;10.27;7.75;;;17.50;94.80;;;;;;4970174;28;20022;-86
2021/08/03 08:46:21;;;;;;;11.60;8.15;;;17.50;94.70;;;;;;4978617;28;20018;-85
2021/08/03 08:48:47;;;;;;;12.60;8.35;;;17.60;94.70;;;;;;4997004;28;20057;-85
2021/08/03 08:51:13;;;;;;;10.75;8.18;;;17.60;94.60;;;;;;4985114;28;20041;-85
2021/08/03 08:53:39;;;;;;;9.68;7.78;;;17.70;94.60;;;;;;4998681;28;20080;-85
2021/08/03 08:56:05;;;;;;;10.40;8.10;;;17.70;94.60;;;;;;4998444;28;20146;-85
2021/08/03 08:58:32;;;;;;;9.32;7.70;;;17.70;94.60;;;;;;4995140;28;20023;-85
2021/08/03 09:00:59;;;;;;;9.43;7.18;;;17.80;94.60;;;;;;4995304;28;20034;-84
2021/08/03 09:03:28;;;;;;;10.77;7.18;;;17.80;94.60;;;;;;4995373;28;20029;-85
2021/08/03 09:05:59;;;;;;;8.45;6.32;;;17.80;94.60;;;;;;4995335;28;20022;-85
2021/08/03 09:08:32;;;;;;;;;;;17.80;94.60;;;;;;5011253;28;20025;-86
2021/08/03 09:11:08;;;;;;;9.82;7.45;;;17.90;94.50;;;;;;5008635;28;19933;-86
2021/08/03 09:13:51;;;;;;;7.95;6.28;;;17.90;94.60;;;;;;4995542;28;20379;-85
2021/08/03 09:16:17;;;;;;;7.82;5.93;;;17.90;94.60;;;;;;5006270;28;20036;-85
2021/08/03 09:18:43;;;;;;;9.05;6.78;;;18.00;94.60;;;;;;4996201;28;20033;-85
2021/08/03 09:21:27;;;;;;;9.57;7.03;;;18.00;94.50;;;;;;4997616;28;20121;-85
2021/08/03 09:23:59;;;;;;;8.45;6.45;;;18.00;94.40;;;;;;5014169;28;20042;-85
2021/08/03 09:26:46;;;;;;;9.32;6.60;;;18.10;94.50;;;;;;5007272;28;20049;-85
2021/08/03 09:29:14;;;;;;;9.40;6.97;;;18.10;94.40;;;;;;4991665;28;20104;-85
2021/08/03 09:31:49;;;;;;;9.70;6.70;;;18.20;94.40;;;;;;4990175;28;20117;-85
2021/08/03 09:34:16;;;;;;;10.05;7.78;;;18.20;94.40;;;;;;4996957;28;20037;-85
2021/08/03 09:36:56;;;;;;;11.75;7.97;;;18.20;94.20;;;;;;4987291;28;20468;-85
2021/08/03 09:39:47;;;;;;;8.95;7.20;;;18.30;94.10;;;;;;5014082;28;20049;-85
2021/08/03 09:42:15;;;;;;;11.85;7.55;;;18.30;93.90;;;;;;4986170;28;20034;-85
2021/08/03 09:44:50;;;;;;;8.95;6.80;;;18.30;93.90;;;;;;5000440;28;20024;-85
2021/08/03 09:47:16;;;;;;;8.18;6.05;;;18.30;94.00;;;;;;5014292;28;20014;-85
2021/08/03 09:49:48;;;;;;;8.07;6.13;;;18.30;94.00;;;;;;4993001;28;20117;-85
2021/08/03 09:52:17;;;;;;;9.77;7.47;;;18.40;94.30;;;;;;5005489;28;20030;-85
2021/08/03 09:54:43;;;;;;;8.85;7.13;;;18.40;94.10;;;;;;5010591;28;20064;-85
2021/08/03 09:57:38;;;;;;;10.10;7.93;;;18.40;94.00;;;;;;4989127;28;20018;-85
2021/08/03 10:00:37;;;;;;;9.73;7.05;;;18.50;93.80;;;;;;4995320;28;20030;-86
2021/08/03 10:03:04;;;;;;;8.48;6.75;;;18.50;93.90;;;;;;4998912;28;20034;-85
2021/08/03 10:05:31;;;;;;;8.73;6.53;;;18.50;93.90;;;;;;5009910;28;20050;-85
2021/08/03 10:07:57;;;;;;;10.88;8.15;;;18.60;94.00;;;;;;4994903;28;20463;-86
2021/08/03 10:10:23;;;;;;;13.15;9.63;;;18.60;93.80;;;;;;5001821;28;20026;-85
2021/08/03 10:12:49;;;;;;;11.32;9.75;;;18.60;93.60;;;;;;4994602;28;20033;-85
2021/08/03 10:15:15;;;;;;;12.82;9.88;;;18.60;93.60;;;;;;4995251;28;20030;-85
2021/08/03 10:17:41;;;;;;;13.57;11.45;;;18.70;93.50;;;;;;4987202;28;20468;-85
2021/08/03 10:20:10;;;;;;;16.25;12.13;;;18.70;93.30;;;;;;5021013;23;20498;-86
2021/08/03 10:22:42;;;;;;;15.15;12.40;;;18.70;93.20;;;;;;4995405;28;20062;-85
2021/08/03 10:25:16;;;;;;;15.05;11.93;;;18.70;93.20;;;;;;5011185;28;20037;-85
2021/08/03 10:27:43;;;;;;;12.77;11.43;;;18.70;92.90;;;;;;5006266;28;20103;-85
2021/08/03 10:30:29;;;;;;;13.25;10.95;;;18.70;93.00;;;;;;4989580;28;20089;-85
2021/08/03 10:32:59;;;;;;;15.18;13.00;;;18.80;93.10;;;;;;4984299;28;20022;-85
2021/08/03 10:35:48;;;;;;;16.60;14.23;;;18.80;93.10;;;;;;4993762;28;20048;-86
2021/08/03 10:38:19;;;;;;;20.73;16.58;;;18.90;92.70;;;;;;4985877;28;20022;-86
2021/08/03 10:40:45;;;;;;;19.10;16.40;;;18.90;92.60;;;;;;4982710;28;20121;-86
2021/08/03 10:43:13;;;;;;;20.27;16.45;;;18.90;92.30;;;;;;5014557;28;20438;-86
2021/08/03 10:45:46;;;;;;;21.58;17.27;;;19.00;92.20;;;;;;5002160;28;20026;-85
2021/08/03 10:48:37;;;;;;;20.73;17.08;;;19.00;92.20;;;;;;5014524;28;20030;-85
2021/08/03 10:51:25;;;;;;;23.75;17.42;;;19.00;91.80;;;;;;5015776;28;20136;-85
2021/08/03 10:54:07;;;;;;;19.63;15.15;;;19.00;90.90;;;;;;4993208;28;20096;-85
2021/08/03 10:56:52;;;;;;;17.42;15.10;;;19.10;91.80;;;;;;4996789;28;20029;-85
2021/08/03 10:59:32;;;;;;;18.77;14.07;;;19.10;91.90;;;;;;4996664;28;20029;-85
2021/08/03 11:01:59;;;;;;;22.17;18.88;;;19.10;91.70;;;;;;4979519;28;20403;-85
2021/08/03 11:04:43;;;;;;;24.20;19.40;;;19.20;90.90;;;;;;4986464;28;20022;-85
2021/08/03 11:07:30;;;;;;;21.35;18.50;;;19.20;90.70;;;;;;5014074;28;20061;-85
2021/08/03 11:10:08;;;;;;;22.67;16.92;;;19.20;90.60;;;;;;4983656;28;20050;-85
2021/08/03 11:12:51;;;;;;;22.35;18.42;;;19.20;90.80;;;;;;4983123;28;20045;-84
2021/08/03 11:15:22;;;;;;;20.48;17.20;;;19.20;86.30;;;;;;4994967;28;20443;-85
2021/08/03 11:18:00;;;;;;;18.17;16.20;;;19.20;89.80;;;;;;4984720;28;20033;-85
2021/08/03 11:20:41;;;;;;;19.38;16.50;;;19.20;90.20;;;;;;4982330;28;20018;-85
2021/08/03 11:23:13;;;;;;;18.13;15.07;;;19.30;90.20;;;;;;4986889;28;20023;-84
2021/08/03 11:25:40;;;;;;;16.10;14.32;;;19.30;90.00;;;;;;4976652;28;20026;-83
2021/08/03 11:28:10;;;;;;;17.77;15.32;;;19.30;90.40;;;;;;4985318;28;20084;-83
2021/08/03 11:30:38;;;;;;;16.35;14.65;;;19.40;89.40;;;;;;4982631;28;20058;-83
2021/08/03 11:33:05;;;;;;;16.83;15.07;;;19.40;90.10;;;;;;4980471;28;20026;-84
2021/08/03 11:35:31;;;;;;;19.70;16.42;;;19.40;89.40;;;;;;4996216;28;20045;-84
2021/08/03 11:38:15;;;;;;;20.25;18.05;;;19.40;89.50;;;;;;4989884;28;20037;-83
2021/08/03 11:40:42;;;;;;;20.02;17.50;;;19.50;90.00;;;;;;4990699;28;20487;-84
2021/08/03 11:43:09;;;;;;;19.65;17.02;;;19.50;89.40;;;;;;5013530;28;20423;-84
2021/08/03 11:45:40;;;;;;;18.10;15.73;;;19.50;89.60;;;;;;4976317;28;20480;-84
2021/08/03 11:48:24;;;;;;;18.25;16.30;;;19.50;90.00;;;;;;4976415;28;20495;-84
2021/08/03 11:50:49;;;;;;;18.30;14.80;;;19.50;88.20;;;;;;5006401;28;20018;-88
2021/08/03 11:53:17;;;;;;;16.23;14.38;;;19.50;88.70;;;;;;4979022;28;20037;-88
2021/08/03 11:55:45;;;;;;;17.98;15.60;;;19.50;89.20;;;;;;4995337;28;20360;-87
2021/08/03 11:58:11;;;;;;;13.75;12.27;;;19.50;89.20;;;;;;5012864;28;20387;-87
2021/08/03 12:00:38;;;;;;;15.60;13.07;;;19.60;89.70;;;;;;4995103;28;20030;-87
2021/08/03 12:03:04;;;;;;;14.90;12.55;;;19.60;89.50;;;;;;4988992;28;20535;-91
2021/08/03 12:05:38;;;;;;;14.70;12.15;;;19.60;89.60;;;;;;4996477;28;20099;-90
2021/08/03 12:08:13;;;;;;;16.45;14.65;;;19.70;89.40;;;;;;4977275;28;20053;-91
2021/08/03 12:10:39;;;;;;;16.48;13.88;;;19.70;89.00;;;;;;4979697;28;20026;-91
2021/08/03 12:13:08;;;;;;;15.32;13.73;;;19.70;89.40;;;;;;4991114;28;20029;-92
2021/08/03 12:15:48;;;;;;;14.20;12.70;;;19.80;89.60;;;;;;5013751;28;20057;-91
2021/08/03 12:18:15;;;;;;;15.10;13.55;;;19.80;89.40;;;;;;5003333;28;20069;-87
2021/08/03 12:20:42;;;;;;;15.40;12.85;;;19.90;89.40;;;;;;4987313;28;20049;-88
2021/08/03 12:23:11;;;;;;;13.70;12.30;;;19.90;89.40;;;;;;4995600;28;20025;-88
2021/08/03 12:25:52;;;;;;;13.85;11.88;;;19.90;89.10;;;;;;4994009;28;20149;-87
2021/08/03 12:28:32;;;;;;;13.63;11.80;;;19.90;87.40;;;;;;4993355;28;20014;-87
2021/08/03 12:31:13;;;;;;;12.27;10.82;;;19.90;87.90;;;;;;4976127;28;20353;-88
2021/08/03 12:33:39;;;;;;;11.20;9.90;;;20.00;87.80;;;;;;5002353;28;20033;-92
2021/08/03 12:36:04;;;;;;;14.27;12.13;;;20.00;88.10;;;;;;4993082;28;20379;-92
2021/08/03 12:38:31;;;;;;;12.88;11.55;;;20.10;88.10;;;;;;4987617;28;20171;-90
2021/08/03 12:40:58;;;;;;;14.57;12.73;;;20.10;87.60;;;;;;4995171;28;20029;-91
2021/08/03 12:43:50;;;;;;;14.18;12.50;;;20.10;87.60;;;;;;4984895;28;20080;-89
2021/08/03 12:46:16;;;;;;;14.15;12.18;;;20.20;87.90;;;;;;4981308;28;20395;-89
2021/08/03 12:48:51;;;;;;;13.45;11.10;;;20.20;88.40;;;;;;4972175;28;20026;-89
2021/08/03 12:51:28;;;;;;;12.50;11.30;;;20.20;88.50;;;;;;4989493;28;20022;-90
2021/08/03 12:54:14;;;;;;;13.15;11.75;;;20.30;88.20;;;;;;4990160;28;20549;-88
2021/08/03 12:56:54;;;;;;;12.77;11.48;;;20.30;88.10;;;;;;4993167;28;20042;-88
2021/08/03 12:59:37;;;;;;;12.75;11.25;;;20.30;88.30;;;;;;4991316;28;20026;-90